sensor_id;sensor_type;location;lat;lon;timestamp;pressure;altitude;pressure_sealevel;temperature;humidity
65666;BME280;52365;47.464;18.976;2023-01-25T00:00:15;101340.66;;;2.57;74.96
65666;BME280;52365;47.464;18.976;2023-01-25T00:00:51;101333.94;;;2.66;74.81
65666;BME280;52365;47.464;18.976;2023-01-25T00:01:27;101339.09;;;2.82;74.46
65666;BME280;52365;47.464;18.976;2023-01-25T00:02:03;101341.06;;;2.89;73.94
65666;BME280;52365;47.464;18.976;2023-01-25T00:02:39;101337.56;;;2.81;73.58
65666;BME280;52365;47.464;18.976;2023-01-25T00:03:15;101340.50;;;2.72;73.57
65666;BME280;52365;47.464;18.976;2023-01-25T00:03:52;101334.66;;;2.63;73.64
65666;BME280;52365;47.464;18.976;2023-01-25T00:04:28;101338.81;;;2.61;73.83
65666;BME280;52365;47.464;18.976;2023-01-25T00:05:04;101342.69;;;2.67;73.90
65666;BME280;52365;47.464;18.976;2023-01-25T00:05:41;101340.03;;;2.67;73.90
65666;BME280;52365;47.464;18.976;2023-01-25T00:06:17;101348.59;;;2.53;74.06
65666;BME280;52365;47.464;18.976;2023-01-25T00:06:53;101341.38;;;2.53;74.30
65666;BME280;52365;47.464;18.976;2023-01-25T00:07:29;101343.62;;;2.51;74.19
65666;BME280;52365;47.464;18.976;2023-01-25T00:08:05;101338.13;;;2.67;74.20
65666;BME280;52365;47.464;18.976;2023-01-25T00:08:41;101348.25;;;2.85;73.88
65666;BME280;52365;47.464;18.976;2023-01-25T00:09:18;101343.88;;;2.99;73.42
65666;BME280;52365;47.464;18.976;2023-01-25T00:09:55;101351.66;;;3.12;72.90
65666;BME280;52365;47.464;18.976;2023-01-25T00:10:31;101350.12;;;3.14;72.50
65666;BME280;52365;47.464;18.976;2023-01-25T00:11:07;101342.47;;;3.09;72.23
65666;BME280;52365;47.464;18.976;2023-01-25T00:11:43;101352.19;;;2.94;72.05
65666;BME280;52365;47.464;18.976;2023-01-25T00:12:19;101350.41;;;2.75;72.28
65666;BME280;52365;47.464;18.976;2023-01-25T00:12:55;101349.59;;;2.71;72.67
65666;BME280;52365;47.464;18.976;2023-01-25T00:13:32;101358.81;;;2.77;72.93
65666;BME280;52365;47.464;18.976;2023-01-25T00:14:09;101351.91;;;2.73;73.00
65666;BME280;52365;47.464;18.976;2023-01-25T00:14:46;101349.19;;;2.69;73.08
65666;BME280;52365;47.464;18.976;2023-01-25T00:15:22;101353.66;;;2.62;73.09
65666;BME280;52365;47.464;18.976;2023-01-25T00:16:02;101355.25;;;2.66;73.13
65666;BME280;52365;47.464;18.976;2023-01-25T00:16:39;101357.00;;;2.55;73.11
65666;BME280;52365;47.464;18.976;2023-01-25T00:17:15;101359.75;;;2.36;73.60
65666;BME280;52365;47.464;18.976;2023-01-25T00:17:51;101361.94;;;2.30;74.04
65666;BME280;52365;47.464;18.976;2023-01-25T00:18:27;101352.91;;;2.35;74.18
65666;BME280;52365;47.464;18.976;2023-01-25T00:19:04;101364.38;;;2.39;74.37
65666;BME280;52365;47.464;18.976;2023-01-25T00:19:40;101357.09;;;2.36;74.50
65666;BME280;52365;47.464;18.976;2023-01-25T00:20:16;101353.34;;;2.40;74.50
65666;BME280;52365;47.464;18.976;2023-01-25T00:20:52;101359.59;;;2.51;74.35
65666;BME280;52365;47.464;18.976;2023-01-25T00:21:29;101355.94;;;2.60;74.20
65666;BME280;52365;47.464;18.976;2023-01-25T00:22:05;101358.78;;;2.74;73.92
65666;BME280;52365;47.464;18.976;2023-01-25T00:22:41;101360.66;;;2.73;73.71
65666;BME280;52365;47.464;18.976;2023-01-25T00:23:17;101358.09;;;2.81;73.51
65666;BME280;52365;47.464;18.976;2023-01-25T00:23:53;101363.78;;;2.79;73.39
65666;BME280;52365;47.464;18.976;2023-01-25T00:24:29;101355.28;;;2.70;73.51
65666;BME280;52365;47.464;18.976;2023-01-25T00:25:05;101350.94;;;2.58;73.88
65666;BME280;52365;47.464;18.976;2023-01-25T00:25:41;101353.66;;;2.62;74.09
65666;BME280;52365;47.464;18.976;2023-01-25T00:26:18;101362.09;;;2.67;74.17
65666;BME280;52365;47.464;18.976;2023-01-25T00:26:54;101361.31;;;2.67;74.33
65666;BME280;52365;47.464;18.976;2023-01-25T00:27:30;101358.22;;;2.61;74.93
65666;BME280;52365;47.464;18.976;2023-01-25T00:28:06;101358.38;;;2.45;75.78
65666;BME280;52365;47.464;18.976;2023-01-25T00:28:42;101362.31;;;2.55;75.71
65666;BME280;52365;47.464;18.976;2023-01-25T00:29:18;101361.50;;;2.51;76.09
65666;BME280;52365;47.464;18.976;2023-01-25T00:29:54;101362.31;;;2.55;76.08
65666;BME280;52365;47.464;18.976;2023-01-25T00:30:30;101365.37;;;2.57;76.28
65666;BME280;52365;47.464;18.976;2023-01-25T00:31:09;101363.47;;;2.58;76.45
65666;BME280;52365;47.464;18.976;2023-01-25T00:31:57;101361.53;;;2.55;76.67
65666;BME280;52365;47.464;18.976;2023-01-25T00:33:23;101365.37;;;2.57;76.40
65666;BME280;52365;47.464;18.976;2023-01-25T00:34:59;101365.37;;;2.57;75.42
65666;BME280;52365;47.464;18.976;2023-01-25T00:35:35;101367.12;;;2.46;74.83
65666;BME280;52365;47.464;18.976;2023-01-25T00:37:01;101362.41;;;2.62;74.64
65666;BME280;52365;47.464;18.976;2023-01-25T00:37:42;101367.78;;;2.66;74.22
65666;BME280;52365;47.464;18.976;2023-01-25T00:38:29;101367.53;;;2.48;73.95
65666;BME280;52365;47.464;18.976;2023-01-25T00:39:12;101367.34;;;2.34;74.11
65666;BME280;52365;47.464;18.976;2023-01-25T00:39:48;101357.25;;;2.46;74.23
65666;BME280;52365;47.464;18.976;2023-01-25T00:40:24;101365.53;;;2.41;74.58
65666;BME280;52365;47.464;18.976;2023-01-25T00:41:00;101357.97;;;2.43;74.66
65666;BME280;52365;47.464;18.976;2023-01-25T00:41:36;101359.41;;;2.37;74.73
65666;BME280;52365;47.464;18.976;2023-01-25T00:42:14;101360.75;;;2.27;74.79
65666;BME280;52365;47.464;18.976;2023-01-25T00:42:51;101361.75;;;2.16;74.82
65666;BME280;52365;47.464;18.976;2023-01-25T00:43:27;101357.34;;;2.27;74.65
65666;BME280;52365;47.464;18.976;2023-01-25T00:44:03;101362.97;;;2.48;74.68
65666;BME280;52365;47.464;18.976;2023-01-25T00:44:39;101360.28;;;2.75;74.20
65666;BME280;52365;47.464;18.976;2023-01-25T00:45:15;101366.66;;;2.97;73.45
65666;BME280;52365;47.464;18.976;2023-01-25T00:45:59;101356.13;;;3.04;72.85
65666;BME280;52365;47.464;18.976;2023-01-25T00:46:35;101365.13;;;2.96;72.50
65666;BME280;52365;47.464;18.976;2023-01-25T00:47:11;101351.81;;;2.96;72.41
65666;BME280;52365;47.464;18.976;2023-01-25T00:47:48;101359.88;;;2.99;72.33
65666;BME280;52365;47.464;18.976;2023-01-25T00:48:24;101363.28;;;3.00;72.28
65666;BME280;52365;47.464;18.976;2023-01-25T00:49:00;101361.34;;;2.97;72.20
65666;BME280;52365;47.464;18.976;2023-01-25T00:49:38;101356.00;;;2.97;72.23
65666;BME280;52365;47.464;18.976;2023-01-25T00:50:14;101359.75;;;2.92;72.27
65666;BME280;52365;47.464;18.976;2023-01-25T00:50:50;101356.28;;;2.88;72.35
65666;BME280;52365;47.464;18.976;2023-01-25T00:51:26;101360.47;;;2.89;72.46
65666;BME280;52365;47.464;18.976;2023-01-25T00:52:03;101359.91;;;3.03;72.31
65666;BME280;52365;47.464;18.976;2023-01-25T00:52:39;101353.78;;;2.99;72.11
65666;BME280;52365;47.464;18.976;2023-01-25T00:53:15;101362.06;;;2.94;72.15
65666;BME280;52365;47.464;18.976;2023-01-25T00:53:51;101360.19;;;2.94;72.13
65666;BME280;52365;47.464;18.976;2023-01-25T00:54:28;101359.66;;;2.85;72.10
65666;BME280;52365;47.464;18.976;2023-01-25T00:55:04;101362.91;;;2.71;72.28
65666;BME280;52365;47.464;18.976;2023-01-25T00:55:40;101359.44;;;2.67;72.64
65666;BME280;52365;47.464;18.976;2023-01-25T00:56:16;101358.34;;;2.72;72.87
65666;BME280;52365;47.464;18.976;2023-01-25T00:56:53;101362.97;;;2.75;72.83
65666;BME280;52365;47.464;18.976;2023-01-25T00:57:31;101366.84;;;2.55;73.14
65666;BME280;52365;47.464;18.976;2023-01-25T00:58:07;101363.69;;;2.45;73.53
65666;BME280;52365;47.464;18.976;2023-01-25T00:58:43;101357.41;;;2.57;73.62
65666;BME280;52365;47.464;18.976;2023-01-25T00:59:19;101357.12;;;2.66;73.55
65666;BME280;52365;47.464;18.976;2023-01-25T00:59:55;101364.03;;;2.70;73.37
65666;BME280;52365;47.464;18.976;2023-01-25T01:00:31;101361.44;;;2.74;73.24
65666;BME280;52365;47.464;18.976;2023-01-25T01:01:08;101368.59;;;2.70;73.07
65666;BME280;52365;47.464;18.976;2023-01-25T01:01:44;101364.19;;;2.81;72.93
65666;BME280;52365;47.464;18.976;2023-01-25T01:02:20;101359.75;;;2.92;72.70
65666;BME280;52365;47.464;18.976;2023-01-25T01:02:56;101367.81;;;2.96;72.42
65666;BME280;52365;47.464;18.976;2023-01-25T01:03:33;101367.38;;;2.94;72.25
65666;BME280;52365;47.464;18.976;2023-01-25T01:04:09;101365.13;;;2.96;72.07
65666;BME280;52365;47.464;18.976;2023-01-25T01:04:45;101370.53;;;2.99;72.01
65666;BME280;52365;47.464;18.976;2023-01-25T01:05:21;101368.97;;;2.98;71.93
65666;BME280;52365;47.464;18.976;2023-01-25T01:06:10;101369.69;;;2.95;71.86
65666;BME280;52365;47.464;18.976;2023-01-25T01:06:46;101364.72;;;2.94;71.85
65666;BME280;52365;47.464;18.976;2023-01-25T01:07:22;101370.41;;;2.92;71.89
65666;BME280;52365;47.464;18.976;2023-01-25T01:07:58;101364.00;;;2.97;71.79
65666;BME280;52365;47.464;18.976;2023-01-25T01:08:39;101366.66;;;2.97;71.73
65666;BME280;52365;47.464;18.976;2023-01-25T01:09:16;101359.88;;;2.99;71.72
65666;BME280;52365;47.464;18.976;2023-01-25T01:09:53;101365.25;;;3.03;71.65
65666;BME280;52365;47.464;18.976;2023-01-25T01:10:29;101368.56;;;2.96;71.53
65666;BME280;52365;47.464;18.976;2023-01-25T01:11:08;101365.34;;;2.84;71.52
65666;BME280;52365;47.464;18.976;2023-01-25T01:11:45;101362.69;;;2.84;71.71
65666;BME280;52365;47.464;18.976;2023-01-25T01:12:21;101361.56;;;2.85;71.84
65666;BME280;52365;47.464;18.976;2023-01-25T01:12:57;101367.69;;;2.89;71.86
65666;BME280;52365;47.464;18.976;2023-01-25T01:13:33;101368.78;;;2.84;71.65
65666;BME280;52365;47.464;18.976;2023-01-25T01:14:10;101376.31;;;2.78;71.54
65666;BME280;52365;47.464;18.976;2023-01-25T01:14:46;101369.25;;;2.63;71.79
65666;BME280;52365;47.464;18.976;2023-01-25T01:15:22;101366.41;;;2.49;72.14
65666;BME280;52365;47.464;18.976;2023-01-25T01:16:03;101361.19;;;2.30;72.76
65666;BME280;52365;47.464;18.976;2023-01-25T01:16:40;101369.19;;;2.56;73.32
65666;BME280;52365;47.464;18.976;2023-01-25T01:17:16;101363.50;;;2.88;72.54
65666;BME280;52365;47.464;18.976;2023-01-25T01:17:52;101368.03;;;2.84;71.52
65666;BME280;52365;47.464;18.976;2023-01-25T01:18:36;101379.56;;;2.65;71.49
65666;BME280;52365;47.464;18.976;2023-01-25T01:19:12;101373.28;;;2.80;71.67
65666;BME280;52365;47.464;18.976;2023-01-25T01:19:48;101373.06;;;2.62;71.82
65666;BME280;52365;47.464;18.976;2023-01-25T01:20:24;101366.97;;;2.62;71.94
65666;BME280;52365;47.464;18.976;2023-01-25T01:21:00;101375.38;;;2.64;71.83
65666;BME280;52365;47.464;18.976;2023-01-25T01:21:36;101373.81;;;2.63;71.89
65666;BME280;52365;47.464;18.976;2023-01-25T01:22:13;101371.53;;;2.61;71.97
65666;BME280;52365;47.464;18.976;2023-01-25T01:22:51;101378.38;;;2.62;71.94
65666;BME280;52365;47.464;18.976;2023-01-25T01:23:27;101370.13;;;2.71;71.80
65666;BME280;52365;47.464;18.976;2023-01-25T01:24:04;101366.81;;;2.51;72.02
65666;BME280;52365;47.464;18.976;2023-01-25T01:24:40;101375.81;;;2.43;72.46
65666;BME280;52365;47.464;18.976;2023-01-25T01:25:17;101373.78;;;2.59;72.47
65666;BME280;52365;47.464;18.976;2023-01-25T01:25:53;101366.69;;;2.70;72.17
65666;BME280;52365;47.464;18.976;2023-01-25T01:26:29;101375.50;;;2.74;71.88
65666;BME280;52365;47.464;18.976;2023-01-25T01:27:05;101372.34;;;2.65;71.76
65666;BME280;52365;47.464;18.976;2023-01-25T01:27:41;101370.59;;;2.50;71.81
65666;BME280;52365;47.464;18.976;2023-01-25T01:28:17;101373.50;;;2.41;72.06
65666;BME280;52365;47.464;18.976;2023-01-25T01:28:53;101372.97;;;2.55;72.25
65666;BME280;52365;47.464;18.976;2023-01-25T01:29:29;101371.12;;;2.59;72.08
65666;BME280;52365;47.464;18.976;2023-01-25T01:30:06;101375.00;;;2.65;71.95
65666;BME280;52365;47.464;18.976;2023-01-25T01:30:42;101379.13;;;2.59;71.86
65666;BME280;52365;47.464;18.976;2023-01-25T01:31:20;101379.63;;;2.68;71.81
65666;BME280;52365;47.464;18.976;2023-01-25T01:31:57;101372.78;;;2.71;71.57
65666;BME280;52365;47.464;18.976;2023-01-25T01:32:33;101376.53;;;2.66;71.41
65666;BME280;52365;47.464;18.976;2023-01-25T01:33:09;101380.84;;;2.74;71.34
65666;BME280;52365;47.464;18.976;2023-01-25T01:33:52;101375.25;;;2.83;71.15
65666;BME280;52365;47.464;18.976;2023-01-25T01:34:29;101374.88;;;2.85;70.92
65666;BME280;52365;47.464;18.976;2023-01-25T01:35:05;101371.72;;;2.75;70.77
65666;BME280;52365;47.464;18.976;2023-01-25T01:35:41;101375.87;;;2.46;70.85
65666;BME280;52365;47.464;18.976;2023-01-25T01:36:19;101381.72;;;2.29;71.40
65666;BME280;52365;47.464;18.976;2023-01-25T01:36:56;101380.38;;;2.19;71.99
65666;BME280;52365;47.464;18.976;2023-01-25T01:37:32;101383.03;;;2.19;72.36
65666;BME280;52365;47.464;18.976;2023-01-25T01:38:08;101376.13;;;2.15;72.67
65666;BME280;52365;47.464;18.976;2023-01-25T01:38:45;101379.34;;;2.01;73.16
65666;BME280;52365;47.464;18.976;2023-01-25T01:39:21;101378.88;;;1.95;73.49
65666;BME280;52365;47.464;18.976;2023-01-25T01:39:57;101379.69;;;1.99;73.57
65666;BME280;52365;47.464;18.976;2023-01-25T01:40:33;101373.91;;;1.94;73.73
65666;BME280;52365;47.464;18.976;2023-01-25T01:41:10;101375.56;;;1.79;74.29
65666;BME280;52365;47.464;18.976;2023-01-25T01:41:46;101380.78;;;1.75;74.47
65666;BME280;52365;47.464;18.976;2023-01-25T01:42:23;101374.47;;;1.84;74.43
65666;BME280;52365;47.464;18.976;2023-01-25T01:43:05;101378.97;;;1.80;74.30
65666;BME280;52365;47.464;18.976;2023-01-25T01:43:42;101380.53;;;1.81;74.11
65666;BME280;52365;47.464;18.976;2023-01-25T01:44:39;101381.41;;;1.88;74.01
65666;BME280;52365;47.464;18.976;2023-01-25T01:46:27;101381.41;;;2.11;73.46
65666;BME280;52365;47.464;18.976;2023-01-25T01:47:24;101377.28;;;2.14;73.15
65666;BME280;52365;47.464;18.976;2023-01-25T01:48:02;101382.28;;;1.96;73.26
65666;BME280;52365;47.464;18.976;2023-01-25T01:49:22;101380.97;;;2.32;72.80
65666;BME280;52365;47.464;18.976;2023-01-25T01:50:03;101374.19;;;2.35;72.54
65666;BME280;52365;47.464;18.976;2023-01-25T01:50:41;101373.94;;;2.43;72.12
65666;BME280;52365;47.464;18.976;2023-01-25T01:51:22;101372.09;;;2.47;71.83
65666;BME280;52365;47.464;18.976;2023-01-25T01:52:02;101373.72;;;2.56;71.60
65666;BME280;52365;47.464;18.976;2023-01-25T01:52:41;101375.31;;;2.60;71.24
65666;BME280;52365;47.464;18.976;2023-01-25T01:53:18;101380.31;;;2.65;71.00
65666;BME280;52365;47.464;18.976;2023-01-25T01:53:59;101368.47;;;2.59;70.84
65666;BME280;52365;47.464;18.976;2023-01-25T01:54:48;101367.34;;;2.34;70.85
65666;BME280;52365;47.464;18.976;2023-01-25T01:55:26;101373.22;;;2.23;71.35
65666;BME280;52365;47.464;18.976;2023-01-25T01:56:05;101369.31;;;2.40;71.54
65666;BME280;52365;47.464;18.976;2023-01-25T01:57:25;101370.88;;;2.18;71.65
65666;BME280;52365;47.464;18.976;2023-01-25T01:58:05;101370.47;;;2.16;72.03
65666;BME280;52365;47.464;18.976;2023-01-25T01:58:43;101367.47;;;1.95;71.89
65666;BME280;52365;47.464;18.976;2023-01-25T01:59:22;101364.12;;;1.98;72.05
65666;BME280;52365;47.464;18.976;2023-01-25T02:00:26;101359.91;;;1.97;72.29
65666;BME280;52365;47.464;18.976;2023-01-25T02:01:05;101369.59;;;1.86;73.02
65666;BME280;52365;47.464;18.976;2023-01-25T02:01:42;101372.91;;;2.02;73.00
65666;BME280;52365;47.464;18.976;2023-01-25T02:02:19;101374.53;;;2.10;72.82
65666;BME280;52365;47.464;18.976;2023-01-25T02:02:55;101369.78;;;1.96;72.80
65666;BME280;52365;47.464;18.976;2023-01-25T02:03:33;101358.53;;;2.30;72.72
65666;BME280;52365;47.464;18.976;2023-01-25T02:04:11;101369.56;;;2.32;72.26
65666;BME280;52365;47.464;18.976;2023-01-25T02:04:49;101366.91;;;2.32;71.92
65666;BME280;52365;47.464;18.976;2023-01-25T02:05:35;101361.34;;;2.40;71.65
65666;BME280;52365;47.464;18.976;2023-01-25T02:06:35;101368.66;;;2.47;71.17
65666;BME280;52365;47.464;18.976;2023-01-25T02:07:53;101363.56;;;1.89;72.59
65666;BME280;52365;47.464;18.976;2023-01-25T02:08:32;101369.41;;;1.75;73.30
65666;BME280;52365;47.464;18.976;2023-01-25T02:09:13;101367.34;;;1.88;73.50
65666;BME280;52365;47.464;18.976;2023-01-25T02:09:51;101365.03;;;2.09;73.19
65666;BME280;52365;47.464;18.976;2023-01-25T02:10:27;101359.31;;;2.07;72.72
65666;BME280;52365;47.464;18.976;2023-01-25T02:11:06;101360.50;;;1.87;72.83
65666;BME280;52365;47.464;18.976;2023-01-25T02:11:42;101366.41;;;1.76;73.14
65666;BME280;52365;47.464;18.976;2023-01-25T02:12:20;101366.84;;;1.59;73.77
65666;BME280;52365;47.464;18.976;2023-01-25T02:12:58;101366.97;;;1.66;73.98
65666;BME280;52365;47.464;18.976;2023-01-25T02:13:35;101362.56;;;1.97;73.62
65666;BME280;52365;47.464;18.976;2023-01-25T02:14:13;101366.50;;;1.84;73.04
65666;BME280;52365;47.464;18.976;2023-01-25T02:14:51;101358.66;;;1.68;73.00
65666;BME280;52365;47.464;18.976;2023-01-25T02:15:41;101358.16;;;1.62;73.25
65666;BME280;52365;47.464;18.976;2023-01-25T02:16:21;101357.06;;;1.63;73.54
65666;BME280;52365;47.464;18.976;2023-01-25T02:16:59;101362.69;;;1.81;73.50
65666;BME280;52365;47.464;18.976;2023-01-25T02:17:37;101357.31;;;1.77;73.36
65666;BME280;52365;47.464;18.976;2023-01-25T02:18:14;101354.47;;;1.67;73.61
65666;BME280;52365;47.464;18.976;2023-01-25T02:18:52;101353.91;;;1.58;73.97
65666;BME280;52365;47.464;18.976;2023-01-25T02:20:35;101351.44;;;1.68;73.73
65666;BME280;52365;47.464;18.976;2023-01-25T02:21:12;101350.47;;;1.76;73.46
65666;BME280;52365;47.464;18.976;2023-01-25T02:21:49;101354.41;;;1.86;73.19
65666;BME280;52365;47.464;18.976;2023-01-25T02:23:07;101351.06;;;1.89;72.92
65666;BME280;52365;47.464;18.976;2023-01-25T02:23:32;101356.69;;;2.11;72.62
65666;BME280;52365;47.464;18.976;2023-01-25T02:24:17;101351.87;;;2.16;72.03
65666;BME280;52365;47.464;18.976;2023-01-25T02:25:15;101359.41;;;2.14;71.97
65666;BME280;52365;47.464;18.976;2023-01-25T02:25:54;101346.25;;;2.21;71.62
65666;BME280;52365;47.464;18.976;2023-01-25T02:26:31;101344.69;;;1.94;71.96
65666;BME280;52365;47.464;18.976;2023-01-25T02:27:07;101352.28;;;1.95;72.18
65666;BME280;52365;47.464;18.976;2023-01-25T02:27:47;101351.66;;;2.02;72.18
65666;BME280;52365;47.464;18.976;2023-01-25T02:29:06;101347.09;;;2.03;72.40
65666;BME280;52365;47.464;18.976;2023-01-25T02:29:44;101352.03;;;2.04;72.29
65666;BME280;52365;47.464;18.976;2023-01-25T02:30:20;101352.91;;;1.89;72.52
65666;BME280;52365;47.464;18.976;2023-01-25T02:30:56;101349.56;;;1.92;72.53
65666;BME280;52365;47.464;18.976;2023-01-25T02:31:33;101344.78;;;1.78;72.93
65666;BME280;52365;47.464;18.976;2023-01-25T02:32:09;101347.28;;;1.67;73.40
65666;BME280;52365;47.464;18.976;2023-01-25T02:32:45;101352.44;;;1.60;74.04
65666;BME280;52365;47.464;18.976;2023-01-25T02:33:25;101351.16;;;1.73;73.96
65666;BME280;52365;47.464;18.976;2023-01-25T02:34:01;101353.94;;;1.81;73.86
65666;BME280;52365;47.464;18.976;2023-01-25T02:34:38;101346.13;;;1.68;74.13
65666;BME280;52365;47.464;18.976;2023-01-25T02:35:23;101349.56;;;1.69;74.28
65666;BME280;52365;47.464;18.976;2023-01-25T02:36:15;101348.38;;;1.66;74.41
65666;BME280;52365;47.464;18.976;2023-01-25T02:36:53;101337.28;;;1.84;74.12
65666;BME280;52365;47.464;18.976;2023-01-25T02:37:29;101338.19;;;2.18;73.54
65666;BME280;52365;47.464;18.976;2023-01-25T02:38:06;101350.44;;;2.49;72.53
65666;BME280;52365;47.464;18.976;2023-01-25T02:39:02;101343.59;;;2.48;71.80
65666;BME280;52365;47.464;18.976;2023-01-25T02:39:39;101341.19;;;2.39;71.33
65666;BME280;52365;47.464;18.976;2023-01-25T02:40:17;101340.91;;;2.48;71.16
65666;BME280;52365;47.464;18.976;2023-01-25T02:41:07;101340.22;;;2.51;70.89
65666;BME280;52365;47.464;18.976;2023-01-25T02:41:45;101334.78;;;2.44;70.68
65666;BME280;52365;47.464;18.976;2023-01-25T02:42:22;101325.97;;;2.40;70.58
65666;BME280;52365;47.464;18.976;2023-01-25T02:42:58;101336.41;;;1.99;70.98
65666;BME280;52365;47.464;18.976;2023-01-25T02:43:34;101326.34;;;1.89;71.69
65666;BME280;52365;47.464;18.976;2023-01-25T02:44:31;101325.81;;;1.80;72.29
65666;BME280;52365;47.464;18.976;2023-01-25T02:45:12;101324.03;;;2.10;72.19
65666;BME280;52365;47.464;18.976;2023-01-25T02:45:55;101318.69;;;2.10;71.88
65666;BME280;52365;47.464;18.976;2023-01-25T02:46:37;101324.72;;;1.81;72.15
65666;BME280;52365;47.464;18.976;2023-01-25T02:47:13;101324.44;;;1.66;72.82
65666;BME280;52365;47.464;18.976;2023-01-25T02:47:49;101320.47;;;1.76;72.98
65666;BME280;52365;47.464;18.976;2023-01-25T02:48:25;101318.72;;;1.64;73.00
65666;BME280;52365;47.464;18.976;2023-01-25T02:49:03;101319.38;;;1.58;72.83
65666;BME280;52365;47.464;18.976;2023-01-25T02:49:40;101327.53;;;1.45;72.89
65666;BME280;52365;47.464;18.976;2023-01-25T02:50:16;101321.97;;;1.54;73.08
65666;BME280;52365;47.464;18.976;2023-01-25T02:50:52;101319.31;;;1.54;73.00
65666;BME280;52365;47.464;18.976;2023-01-25T02:51:30;101319.50;;;1.88;72.95
65666;BME280;52365;47.464;18.976;2023-01-25T02:52:06;101315.59;;;2.05;72.39
65666;BME280;52365;47.464;18.976;2023-01-25T02:52:42;101314.16;;;2.11;72.05
65666;BME280;52365;47.464;18.976;2023-01-25T02:53:18;101315.50;;;2.24;71.50
65666;BME280;52365;47.464;18.976;2023-01-25T02:53:55;101310.94;;;2.24;71.20
65666;BME280;52365;47.464;18.976;2023-01-25T02:54:31;101317.63;;;2.15;71.26
65666;BME280;52365;47.464;18.976;2023-01-25T02:55:08;101310.81;;;1.91;71.79
65666;BME280;52365;47.464;18.976;2023-01-25T02:55:44;101305.97;;;1.96;71.99
65666;BME280;52365;47.464;18.976;2023-01-25T02:56:20;101308.50;;;2.12;71.81
65666;BME280;52365;47.464;18.976;2023-01-25T02:56:57;101313.88;;;1.93;71.96
65666;BME280;52365;47.464;18.976;2023-01-25T02:57:33;101310.50;;;1.96;72.16
65666;BME280;52365;47.464;18.976;2023-01-25T02:58:09;101303.00;;;2.01;72.14
65666;BME280;52365;47.464;18.976;2023-01-25T02:58:45;101305.06;;;1.89;72.20
65666;BME280;52365;47.464;18.976;2023-01-25T02:59:22;101306.03;;;1.77;72.64
65666;BME280;52365;47.464;18.976;2023-01-25T02:59:58;101305.69;;;1.79;72.85
65666;BME280;52365;47.464;18.976;2023-01-25T03:00:34;101309.75;;;1.95;72.69
65666;BME280;52365;47.464;18.976;2023-01-25T03:01:11;101310.03;;;2.13;72.26
65666;BME280;52365;47.464;18.976;2023-01-25T03:01:48;101306.84;;;2.04;71.86
65666;BME280;52365;47.464;18.976;2023-01-25T03:02:24;101310.44;;;1.92;71.70
65666;BME280;52365;47.464;18.976;2023-01-25T03:03:00;101325.09;;;1.60;71.99
65666;BME280;52365;47.464;18.976;2023-01-25T03:03:36;101318.37;;;1.66;72.45
65666;BME280;52365;47.464;18.976;2023-01-25T03:04:13;101318.41;;;1.46;72.97
65666;BME280;52365;47.464;18.976;2023-01-25T03:04:49;101314.09;;;1.38;73.43
65666;BME280;52365;47.464;18.976;2023-01-25T03:05:25;101314.78;;;1.35;73.52
65666;BME280;52365;47.464;18.976;2023-01-25T03:06:02;101313.97;;;1.31;73.88
65666;BME280;52365;47.464;18.976;2023-01-25T03:06:38;101315.47;;;1.51;73.85
65666;BME280;52365;47.464;18.976;2023-01-25T03:07:14;101321.19;;;1.54;73.33
65666;BME280;52365;47.464;18.976;2023-01-25T03:07:50;101316.59;;;1.50;73.37
65666;BME280;52365;47.464;18.976;2023-01-25T03:08:26;101308.28;;;1.52;73.48
65666;BME280;52365;47.464;18.976;2023-01-25T03:09:04;101312.75;;;1.48;73.55
65666;BME280;52365;47.464;18.976;2023-01-25T03:09:40;101307.34;;;1.64;73.48
65666;BME280;52365;47.464;18.976;2023-01-25T03:10:16;101311.00;;;1.79;72.99
65666;BME280;52365;47.464;18.976;2023-01-25T03:10:57;101311.44;;;1.84;72.62
65666;BME280;52365;47.464;18.976;2023-01-25T03:11:33;101305.84;;;1.66;72.60
65666;BME280;52365;47.464;18.976;2023-01-25T03:12:09;101312.81;;;1.51;73.08
65666;BME280;52365;47.464;18.976;2023-01-25T03:12:45;101315.94;;;1.57;73.09
65666;BME280;52365;47.464;18.976;2023-01-25T03:13:21;101305.59;;;1.75;72.95
65666;BME280;52365;47.464;18.976;2023-01-25T03:13:57;101310.28;;;1.82;72.68
65666;BME280;52365;47.464;18.976;2023-01-25T03:14:34;101307.28;;;1.83;72.39
65666;BME280;52365;47.464;18.976;2023-01-25T03:15:10;101305.44;;;1.64;72.37
65666;BME280;52365;47.464;18.976;2023-01-25T03:15:46;101308.75;;;1.81;72.44
65666;BME280;52365;47.464;18.976;2023-01-25T03:16:22;101302.34;;;1.62;72.22
65666;BME280;52365;47.464;18.976;2023-01-25T03:16:58;101308.72;;;1.58;72.46
65666;BME280;52365;47.464;18.976;2023-01-25T03:17:34;101310.28;;;1.59;72.62
65666;BME280;52365;47.464;18.976;2023-01-25T03:18:10;101306.44;;;1.79;72.42
65666;BME280;52365;47.464;18.976;2023-01-25T03:18:46;101316.44;;;1.86;72.12
65666;BME280;52365;47.464;18.976;2023-01-25T03:19:22;101306.28;;;1.68;72.21
65666;BME280;52365;47.464;18.976;2023-01-25T03:19:58;101307.16;;;1.76;72.26
65666;BME280;52365;47.464;18.976;2023-01-25T03:20:34;101304.37;;;1.92;72.01
65666;BME280;52365;47.464;18.976;2023-01-25T03:21:48;101299.47;;;1.94;71.47
65666;BME280;52365;47.464;18.976;2023-01-25T03:22:24;101306.97;;;1.88;71.34
65666;BME280;52365;47.464;18.976;2023-01-25T03:23:00;101299.00;;;1.88;71.43
65666;BME280;52365;47.464;18.976;2023-01-25T03:23:36;101307.72;;;1.89;71.37
65666;BME280;52365;47.464;18.976;2023-01-25T03:24:12;101300.59;;;1.70;71.23
65666;BME280;52365;47.464;18.976;2023-01-25T03:24:49;101305.75;;;1.59;71.54
65666;BME280;52365;47.464;18.976;2023-01-25T03:25:25;101301.19;;;1.83;71.65
65666;BME280;52365;47.464;18.976;2023-01-25T03:26:06;101303.91;;;1.86;71.37